Decoded Metar for KELM (ELMIRA in NY, USA) (IATA:ELM) | Meteo·Mobile Aviation Weather
aviador You're here:

KELM Decoded Metar

ELMIRA in NY, USA
Report Time2020-02-22 20:53:00
UTC Time2020-02-22 21:53:53
Flight Rules vfr VFR
Wind270° at 09 kt
W.Decomp.*RWY 28: 9.0 kt HW 0.3 kt RCW
RWY 24: 6.7 kt HW 6.0 kt RCW
RWY 23: 5.5 kt HW 7.1 kt RCW
Visibility9999 m
Phenomena:N/A
Clouds:N/A
Expected CloudBase > 6,000 ft AGL from Temp-Dew spread
CeilingNone
Temp07°C (ISA -6)
Dew Point-8°C (34% RH)
AAT0.9°C
QNH1021 hPa
Density Alt46 ft
Elevation991 ft
Report Wrong Elevation
Raw Report
KELM 222053Z 27009KT 10SM CLR 07/M08 A3014 RMK AO2 SLP217
T00671078 56013=

Extra information for KELM:More info

Metar Taf Metar & Taf Last 4 Metars F.Rules Stats Wind Profile Meteogram Temp Stats Airport Information Weather charts Add Link Nearby VenuesMetar ALERT Operation Metar Decoded Social comments

AIRNAV info for KELM